Time;durP1;ratioP1;P1;durP2;ratioP2;P2;SDS_P1;SDS_P2;PMS_P1;PMS_P2;Temp;Humidity;BMP_temperature;BMP_pressure;BME280_temperature;BME280_humidity;BME280_pressure;Samples;Min_cycle;Max_cycle;Signal;HPM_P1;HPM_P2
2022/01/03 00:03:25;;;;;;;;;;;;;;;;;;;;;
2022/01/03 00:19:58;;;;;;;7.97;2.43;;;;;;;9.55;68.49;95589.22;5843283;24;20573;-84
2022/01/03 00:33:58;;;;;;;4.03;1.10;;;;;;;9.42;68.60;95613.78;5645912;25;20567;-86
2022/01/03 01:03:03;;;;;;;4.27;1.30;;;;;;;9.47;68.80;95619.38;6229886;23;20201;-84
2022/01/03 01:13:45;;;;;;;;;;;;;;;;;;;;;
2022/01/03 02:27:06;;;;;;;;;;;;;;;;;;;;;
2022/01/03 02:33:26;;;;;;;;;;;;;;;;;;;;;
2022/01/03 02:40:13;;;;;;;;;;;;;;;;;;;;;
2022/01/03 02:50:05;;;;;;;2.93;1.20;;;;;;;9.10;70.26;95658.97;5869283;24;20660;-83
2022/01/03 02:57:11;;;;;;;;;;;;;;;;;;;;;
2022/01/03 03:00:47;;;;;;;;;;;;;;;;;;;;;
2022/01/03 03:10:01;;;;;;;5.43;1.70;;;;;;;8.95;69.94;95657.72;6214271;23;20236;-82
2022/01/03 03:13:05;;;;;;;6.67;1.97;;;;;;;9.01;69.98;95647.66;6016240;23;20178;-83
2022/01/03 03:27:26;;;;;;;;;;;;;;;;;;;;;
2022/01/03 03:30:28;;;;;;;8.07;1.87;;;;;;;8.85;71.27;95660.31;5804437;24;20564;-84
2022/01/03 03:44:35;;;;;;;7.07;1.80;;;;;;;8.62;72.15;95651.94;5692743;25;20189;-84
2022/01/03 03:51:17;;;;;;;8.33;1.90;;;;;;;8.66;72.28;95666.25;5746257;24;20235;-86
2022/01/03 03:57:41;;;;;;;5.40;1.47;;;;;;;8.41;76.71;95664.16;5756665;24;20185;-86
2022/01/03 04:04:25;;;;;;;;;;;;;;;;;;;;;
2022/01/03 04:14:16;;;;;;;;;;;;;;;;;;;;;
2022/01/03 04:17:31;;;;;;;6.47;1.50;;;;;;;7.94;86.78;95674.91;5714090;25;20232;-84
2022/01/03 04:20:10;;;;;;;6.50;1.60;;;;;;;7.83;87.46;95671.59;5722301;25;20218;-86
2022/01/03 04:22:56;;;;;;;6.73;1.60;;;;;;;7.75;88.73;95666.25;5720894;25;20193;-85
2022/01/03 04:28:48;;;;;;;4.60;1.37;;;;;;;7.72;90.71;95654.41;5726760;25;20190;-85
2022/01/03 04:31:37;;;;;;;8.90;1.30;;;;;;;7.51;93.19;95667.34;5736421;24;20166;-84
2022/01/03 04:34:15;;;;;;;7.50;1.87;;;;;;;7.49;94.31;95668.41;5715486;25;20497;-84
2022/01/03 04:36:44;;;;;;;8.97;1.63;;;;;;;7.38;95.38;95685.59;5715289;25;20186;-86
2022/01/03 04:39:09;;;;;;;7.87;1.93;;;;;;;7.38;95.99;95679.63;5718033;25;20209;-86
2022/01/03 04:41:39;;;;;;;7.60;1.53;;;;;;;7.34;96.63;95666.13;5714289;25;20227;-85
2022/01/03 04:44:09;;;;;;;5.77;1.43;;;;;;;7.25;97.64;95660.91;5754851;24;20173;-85
2022/01/03 04:46:43;;;;;;;9.07;1.80;;;;;;;7.27;97.70;95649.50;5766180;24;20195;-84
2022/01/03 04:49:11;;;;;;;8.00;1.50;;;;;;;7.31;97.28;95671.53;5799693;24;20693;-86
2022/01/03 04:51:48;;;;;;;6.20;1.60;;;;;;;7.30;98.02;95677.66;5866951;24;20165;-84
2022/01/03 04:54:16;;;;;;;8.10;2.13;;;;;;;7.18;98.79;95677.84;5981487;23;20161;-85
2022/01/03 04:56:57;;;;;;;6.60;1.70;;;;;;;7.13;99.66;95674.78;5992700;23;20264;-85
2022/01/03 04:59:34;;;;;;;4.33;1.63;;;;;;;7.19;99.22;95687.22;5996333;23;20173;-85
2022/01/03 05:02:07;;;;;;;6.30;1.70;;;;;;;7.21;99.04;95685.31;5990544;23;20200;-85
2022/01/03 05:04:32;;;;;;;10.00;1.77;;;;;;;7.19;99.38;95662.19;6015548;23;20214;-85
2022/01/03 05:07:03;;;;;;;7.80;1.77;;;;;;;7.27;98.91;95670.16;5995181;23;20186;-86
2022/01/03 05:09:46;;;;;;;6.07;1.90;;;;;;;7.13;99.55;95661.88;6137000;23;20502;-85
2022/01/03 05:12:17;;;;;;;8.53;2.23;;;;;;;7.16;99.62;95657.28;6135897;23;20213;-85
2022/01/03 05:14:58;;;;;;;6.87;1.70;;;;;;;7.12;99.80;95649.91;6133857;23;20185;-84
2022/01/03 05:17:29;;;;;;;9.47;2.10;;;;;;;7.03;99.23;95647.13;6134826;23;20796;-84
2022/01/03 05:20:04;;;;;;;9.33;2.30;;;;;;;6.97;99.10;95655.34;6132450;23;20174;-86
2022/01/03 05:22:40;;;;;;;8.57;2.23;;;;;;;7.00;98.72;95655.13;6133679;23;20273;-84
2022/01/03 05:25:09;;;;;;;8.60;1.80;;;;;;;6.98;98.92;95666.50;6131366;23;20175;-85
2022/01/03 05:27:54;;;;;;;7.27;1.60;;;;;;;7.00;97.88;95668.03;6133308;23;20188;-85
2022/01/03 05:30:25;;;;;;;11.10;1.80;;;;;;;7.05;97.68;95673.63;6165333;23;20210;-84
2022/01/03 05:33:01;;;;;;;8.00;1.97;;;;;;;7.14;97.99;95663.50;6133768;23;20154;-85
2022/01/03 05:35:49;;;;;;;11.10;2.10;;;;;;;7.14;98.28;95666.09;6136157;23;20165;-84
2022/01/03 05:38:39;;;;;;;5.80;1.73;;;;;;;7.13;97.81;95656.72;6135941;23;20174;-84
2022/01/03 05:41:18;;;;;;;7.27;1.67;;;;;;;7.07;98.46;95674.34;6135732;23;20179;-84
2022/01/03 05:43:44;;;;;;;9.23;1.60;;;;;;;7.05;98.59;95671.06;6136652;23;20178;-84
2022/01/03 05:46:22;;;;;;;10.87;1.60;;;;;;;6.94;99.25;95678.03;6132968;23;20401;-84
2022/01/03 05:49:01;;;;;;;5.33;1.60;;;;;;;7.02;99.46;95680.81;6137046;23;20192;-84
2022/01/03 05:51:39;;;;;;;;;;;;;;;;;;;;;
2022/01/03 05:54:17;;;;;;;9.47;1.70;;;;;;;7.05;99.22;95690.88;6162737;23;20219;-84
2022/01/03 05:56:58;;;;;;;6.67;1.80;;;;;;;6.95;98.40;95692.56;6136318;23;20257;-84
2022/01/03 05:59:47;;;;;;;9.03;1.70;;;;;;;7.06;98.57;95695.94;6134711;23;20188;-84
2022/01/03 06:02:19;;;;;;;12.47;2.00;;;;;;;7.03;98.68;95691.00;6158531;23;20285;-85
2022/01/03 06:05:05;;;;;;;9.77;1.70;;;;;;;7.05;98.85;95686.53;6133441;23;20177;-85
2022/01/03 06:07:37;;;;;;;3.93;1.43;;;;;;;6.99;99.35;95687.06;6139060;23;20189;-86
2022/01/03 06:13:26;;;;;;;11.47;2.60;;;;;;;6.99;99.43;95678.50;6166033;23;20165;-84
2022/01/03 06:16:01;;;;;;;9.33;2.37;;;;;;;6.95;99.77;95685.63;6135108;23;20165;-85
2022/01/03 06:18:48;;;;;;;7.43;1.50;;;;;;;6.91;100.00;95693.75;6135936;23;20158;-85
2022/01/03 06:21:27;;;;;;;7.43;2.10;;;;;;;6.81;100.00;95686.75;6162053;23;20213;-85
2022/01/03 06:24:29;;;;;;;10.23;1.67;;;;;;;6.83;99.27;95681.47;6138865;23;20166;-85
2022/01/03 06:27:07;;;;;;;5.80;1.50;;;;;;;6.90;99.28;95682.63;6139891;23;20190;-85
2022/01/03 06:29:54;;;;;;;;;;;;;;;;;;;;;
2022/01/03 06:32:39;;;;;;;7.87;2.13;;;;;;;6.85;98.89;95652.94;6164493;23;20644;-84
2022/01/03 06:39:01;;;;;;;9.10;1.87;;;;;;;6.80;98.62;95663.63;6065016;23;20253;-85
2022/01/03 06:41:54;;;;;;;10.47;2.30;;;;;;;6.74;99.25;95664.94;6040438;23;20185;-85
2022/01/03 06:44:48;;;;;;;9.23;2.07;;;;;;;6.74;98.82;95664.94;6017460;23;20169;-85
2022/01/03 06:47:19;;;;;;;7.27;1.63;;;;;;;6.75;98.57;95666.56;6022140;23;20186;-84
2022/01/03 06:56:40;;;;;;;10.43;1.57;;;;;;;6.79;98.63;95673.13;6017334;23;20189;-86
2022/01/03 06:59:38;;;;;;;9.47;1.73;;;;;;;6.79;98.58;95667.13;5994221;23;20158;-86
2022/01/03 07:02:29;;;;;;;6.73;1.67;;;;;;;6.80;97.85;95677.38;5991911;23;20191;-85
2022/01/03 07:05:24;;;;;;;8.33;1.60;;;;;;;6.80;98.36;95669.63;5988835;24;20631;-86
2022/01/03 07:08:19;;;;;;;8.40;1.90;;;;;;;6.78;98.46;95671.47;5943192;24;20191;-86
2022/01/03 07:10:53;;;;;;;7.87;1.43;;;;;;;6.74;98.46;95661.53;5966963;23;20174;-85
2022/01/03 07:13:24;;;;;;;6.67;1.70;;;;;;;6.77;97.87;95664.69;6012240;23;20202;-86
2022/01/03 07:21:42;;;;;;;5.67;1.40;;;;;;;6.81;98.67;95673.84;5995084;23;20189;-83
2022/01/03 07:24:09;;;;;;;7.03;1.60;;;;;;;6.81;98.99;95685.94;6013396;23;20178;-83
2022/01/03 07:26:34;;;;;;;7.07;2.07;;;;;;;6.79;99.56;95687.78;6013548;23;20224;-83
2022/01/03 07:28:59;;;;;;;9.13;1.70;;;;;;;6.71;99.81;95666.94;5989042;23;20245;-84
2022/01/03 07:31:25;;;;;;;6.43;1.60;;;;;;;6.70;100.00;95668.69;5987777;23;20166;-83
2022/01/03 07:33:50;;;;;;;6.90;1.73;;;;;;;6.71;100.00;95662.59;5990135;23;20958;-85
2022/01/03 07:36:16;;;;;;;10.10;1.70;;;;;;;6.71;99.99;95664.34;6013042;23;20183;-83
2022/01/03 07:38:41;;;;;;;7.47;2.47;;;;;;;6.70;100.00;95658.38;5989671;23;20167;-84
2022/01/03 07:41:09;;;;;;;13.13;2.33;;;;;;;6.58;100.00;95650.78;5982791;23;20203;-84
2022/01/03 07:43:34;;;;;;;13.83;2.27;;;;;;;6.64;100.00;95652.88;6102704;23;20230;-83
2022/01/03 07:46:00;;;;;;;9.80;1.87;;;;;;;6.58;100.00;95650.78;6102653;23;20565;-84
2022/01/03 07:48:25;;;;;;;7.73;2.20;;;;;;;6.58;100.00;95643.84;6102591;23;20156;-84
2022/01/03 07:50:51;;;;;;;9.67;1.90;;;;;;;6.63;100.00;95646.91;6077954;23;20207;-83
2022/01/03 07:53:16;;;;;;;5.73;1.87;;;;;;;6.67;100.00;95647.47;6077017;23;20156;-83
2022/01/03 07:55:44;;;;;;;9.87;2.03;;;;;;;6.72;99.86;95653.09;6077909;23;20473;-86
2022/01/03 07:58:21;;;;;;;8.80;2.30;;;;;;;6.76;100.00;95654.50;6108963;23;20163;-83
2022/01/03 08:00:52;;;;;;;10.70;2.83;;;;;;;6.79;99.84;95661.97;6136469;23;20178;-82
2022/01/03 08:03:20;;;;;;;5.23;2.80;;;;;;;6.79;99.52;95654.25;6137761;23;20189;-86
2022/01/03 08:05:45;;;;;;;9.60;2.30;;;;;;;6.78;99.48;95653.41;6161553;23;20155;-79
2022/01/03 08:08:10;;;;;;;6.50;2.50;;;;;;;6.81;99.60;95653.19;6135367;23;20776;-80
2022/01/03 08:10:40;;;;;;;7.90;2.00;;;;;;;6.78;100.00;95648.25;6163315;23;20642;-83
2022/01/03 08:14:02;;;;;;;6.90;2.10;;;;;;;6.82;99.65;95657.41;6138968;23;20587;-83
2022/01/03 08:24:02;;;;;;;6.03;1.57;;;;;;;7.00;95.67;95660.28;6040322;23;20234;-82
2022/01/03 10:45:44;;;;;;;;;;;;;;;;;;;;;
2022/01/03 10:56:10;;;;;;;;;;;;;;;;;;;;;
2022/01/03 10:59:46;;;;;;;4.33;1.33;;;;;;;8.91;78.37;95620.06;6067313;23;20701;-82
2022/01/03 12:48:18;;;;;;;5.07;1.53;;;;;;;9.43;67.38;95489.22;6151381;23;20279;-80
2022/01/03 13:08:01;;;;;;;;;;;;;;;;;;;;;
2022/01/03 14:10:36;;;;;;;5.47;1.50;;;;;;;9.51;67.72;95356.31;5768918;24;20237;-83
2022/01/03 16:44:36;;;;;;;;;;;;;;;;;;;;;
2022/01/03 16:51:17;;;;;;;6.07;1.37;;;;;;;7.53;75.99;95227.94;6097527;23;20168;-82
2022/01/03 17:05:33;;;;;;;;;;;;;;;;;;;;;
2022/01/03 17:36:05;;;;;;;4.57;1.50;;;;;;;7.48;76.66;95156.00;6005967;23;20178;-81
2022/01/03 18:22:04;;;;;;;;;;;;;;;;;;;;;
2022/01/03 18:28:37;;;;;;;4.47;1.37;;;;;;;7.86;75.12;95112.91;5953002;24;20203;-82
2022/01/03 19:20:24;;;;;;;3.30;1.00;;;;;;;7.74;74.68;95024.41;6309051;22;20247;-82
2022/01/03 19:23:01;;;;;;;3.47;1.97;;;;;;;7.70;74.40;95015.31;6187481;23;20542;-81
2022/01/03 19:38:22;;;;;;;3.00;1.33;;;;;;;7.81;75.52;95006.56;6078357;23;20148;-81
2022/01/03 19:40:48;;;;;;;3.53;1.37;;;;;;;7.85;74.25;95010.47;6051698;23;20646;-83
2022/01/03 19:43:13;;;;;;;2.60;1.10;;;;;;;7.86;74.00;95014.66;6049801;23;20168;-80
2022/01/03 19:45:40;;;;;;;3.60;1.50;;;;;;;7.85;73.95;95011.28;6067691;23;20216;-81
2022/01/03 19:48:08;;;;;;;3.07;1.10;;;;;;;7.90;74.68;95010.84;6095875;23;20173;-82
2022/01/03 19:50:36;;;;;;;5.23;1.57;;;;;;;7.88;75.34;95005.03;6059341;23;20173;-85
2022/01/03 19:53:02;;;;;;;2.80;1.03;;;;;;;7.86;74.97;95012.09;6050106;23;20167;-84
2022/01/03 20:01:30;;;;;;;;;;;;;;;;;;;;;
2022/01/03 20:04:34;;;;;;;1.63;1.10;;;;;;;7.83;77.83;95005.44;6251199;23;20209;-85
2022/01/03 20:07:30;;;;;;;;;;;;;;;;;;;;;
2022/01/03 20:10:43;;;;;;;3.33;2.10;;;;;;;7.74;79.88;95013.25;6159919;23;20194;-86
2022/01/03 20:13:53;;;;;;;3.33;1.17;;;;;;;7.65;81.72;94996.81;6192971;23;20165;-85
2022/01/03 20:16:53;;;;;;;2.00;0.90;;;;;;;7.53;82.88;94987.66;6197193;23;20186;-86
2022/01/03 20:19:29;;;;;;;4.10;1.50;;;;;;;7.51;84.20;94980.03;6169972;23;20201;-85
2022/01/03 20:29:50;;;;;;;1.67;0.90;;;;;;;7.31;88.22;94968.94;6099919;23;20183;-84
2022/01/03 20:32:28;;;;;;;1.80;0.80;;;;;;;7.27;88.07;94969.38;6052379;23;20189;-85
2022/01/03 20:35:24;;;;;;;0.97;0.77;;;;;;;7.26;89.12;94965.19;6099942;23;20229;-86
2022/01/03 20:38:12;;;;;;;0.73;0.70;;;;;;;7.17;89.70;94959.09;6134477;23;20179;-85
2022/01/03 20:40:40;;;;;;;1.83;1.00;;;;;;;7.10;91.15;94947.69;6045656;23;20718;-83
2022/01/03 20:43:11;;;;;;;1.23;0.70;;;;;;;7.05;91.67;94945.50;6069010;23;20768;-86
2022/01/03 20:45:44;;;;;;;1.43;0.93;;;;;;;7.04;91.62;94936.16;6045165;23;20169;-84
2022/01/03 20:48:17;;;;;;;1.53;1.33;;;;;;;6.99;92.51;94922.06;6069736;23;20197;-86
2022/01/03 20:50:43;;;;;;;2.67;1.10;;;;;;;7.03;92.50;94926.78;6070534;23;20149;-85
2022/01/03 20:53:17;;;;;;;1.23;1.03;;;;;;;7.02;92.84;94917.41;6068472;23;20518;-84
2022/01/03 20:55:50;;;;;;;1.67;1.00;;;;;;;6.99;93.29;94912.53;6048023;23;20348;-86
2022/01/03 20:58:16;;;;;;;1.97;1.33;;;;;;;6.95;93.73;94906.00;6071420;23;20164;-85
2022/01/03 21:00:43;;;;;;;1.10;1.00;;;;;;;6.96;93.88;94902.47;6081900;23;20194;-84
2022/01/03 21:03:12;;;;;;;2.43;1.50;;;;;;;6.95;94.58;94887.94;6160300;23;20159;-84
2022/01/03 21:05:38;;;;;;;3.10;2.00;;;;;;;6.97;94.72;94880.06;6174379;23;20154;-86
2022/01/03 21:08:03;;;;;;;2.67;1.70;;;;;;;6.94;95.16;94873.41;6167462;23;20220;-85
2022/01/03 21:10:37;;;;;;;1.87;1.17;;;;;;;7.01;94.80;94871.91;6167640;23;20172;-85
2022/01/03 21:13:03;;;;;;;1.50;0.90;;;;;;;6.94;95.61;94851.97;6192734;23;20196;-86
2022/01/03 21:15:28;;;;;;;0.60;0.43;;;;;;;6.87;96.18;94848.31;6215726;23;20162;-86
2022/01/03 21:17:53;;;;;;;0.47;0.43;;;;;;;6.87;95.82;94849.13;6272870;22;20178;-86
2022/01/03 21:20:21;;;;;;;1.60;0.50;;;;;;;6.88;96.31;94847.34;6309375;22;20178;-84
2022/01/03 21:22:46;;;;;;;0.97;0.63;;;;;;;6.89;96.34;94843.81;6308794;22;20152;-84
2022/01/03 21:25:16;;;;;;;2.43;0.67;;;;;;;6.90;96.15;94841.13;6284061;22;20633;-85
2022/01/03 21:27:42;;;;;;;2.00;0.60;;;;;;;6.90;96.32;94828.22;6312341;22;20179;-84
2022/01/03 21:30:10;;;;;;;0.90;0.47;;;;;;;6.84;96.64;94826.19;6284376;22;20212;-82
2022/01/03 21:32:36;;;;;;;1.30;0.50;;;;;;;6.82;97.17;94820.38;6306879;22;20589;-84
2022/01/03 21:35:04;;;;;;;2.23;0.70;;;;;;;6.82;97.20;94813.44;6282250;22;20152;-83
2022/01/03 21:37:30;;;;;;;1.50;0.83;;;;;;;6.93;96.80;94803.88;6283077;22;20224;-81
2022/01/03 21:39:55;;;;;;;0.70;0.70;;;;;;;6.82;97.41;94807.47;6282163;22;20637;-84
2022/01/03 21:42:20;;;;;;;0.87;0.60;;;;;;;6.82;97.79;94792.78;6282738;22;20160;-81
2022/01/03 21:44:46;;;;;;;1.73;0.73;;;;;;;6.84;98.40;94790.06;6282899;22;20156;-84
2022/01/03 21:47:11;;;;;;;1.77;0.77;;;;;;;6.82;98.55;94785.03;6281229;22;20178;-81
2022/01/03 21:49:36;;;;;;;2.57;1.00;;;;;;;6.84;98.42;94784.09;6281561;22;20238;-84
2022/01/03 21:52:02;;;;;;;3.73;0.80;;;;;;;6.75;99.94;94781.41;6277355;22;20156;-84
2022/01/03 21:54:28;;;;;;;1.70;1.10;;;;;;;6.74;100.00;94768.66;6280272;22;20583;-83
2022/01/03 21:56:55;;;;;;;1.73;1.23;;;;;;;6.77;100.00;94766.59;6280585;22;20233;-84
2022/01/03 21:59:24;;;;;;;1.93;1.10;;;;;;;6.73;100.00;94760.09;6280886;22;20151;-82
2022/01/03 22:01:54;;;;;;;0.80;0.70;;;;;;;6.77;100.00;94755.44;6304687;22;20210;-85
2022/01/03 22:04:23;;;;;;;1.17;1.07;;;;;;;6.77;100.00;94756.25;6277537;22;20245;-82
2022/01/03 22:06:49;;;;;;;2.20;1.43;;;;;;;6.81;100.00;94751.66;6280890;22;20602;-84
2022/01/03 22:09:15;;;;;;;1.33;0.93;;;;;;;6.83;100.00;94747.16;6306325;22;20164;-83
2022/01/03 22:11:40;;;;;;;2.73;1.00;;;;;;;6.78;100.00;94755.31;6279869;22;20178;-83
2022/01/03 22:14:05;;;;;;;1.03;0.83;;;;;;;6.84;100.00;94746.19;6278548;22;20152;-83
2022/01/03 22:16:31;;;;;;;1.80;1.07;;;;;;;6.81;100.00;94738.75;6303524;22;20280;-82
2022/01/03 22:18:59;;;;;;;2.83;1.10;;;;;;;6.91;100.00;94736.09;6304554;22;20163;-82
2022/01/03 22:21:24;;;;;;;3.87;0.97;;;;;;;6.87;100.00;94739.91;6278897;22;20168;-83
2022/01/03 22:23:50;;;;;;;1.73;0.93;;;;;;;6.90;100.00;94737.06;6280747;22;20862;-84
2022/01/03 22:26:15;;;;;;;1.30;0.93;;;;;;;6.88;100.00;94737.19;6278391;22;20180;-83
2022/01/03 22:28:44;;;;;;;3.67;1.17;;;;;;;6.93;100.00;94734.19;6305394;22;20278;-83
2022/01/03 22:31:10;;;;;;;1.33;1.00;;;;;;;6.96;100.00;94726.94;6304907;22;20221;-84
2022/01/03 22:33:35;;;;;;;3.87;1.13;;;;;;;7.03;100.00;94727.19;6278194;22;20164;-82
2022/01/03 22:36:00;;;;;;;2.50;1.00;;;;;;;7.05;100.00;94725.25;6280353;22;20182;-83
2022/01/03 22:38:26;;;;;;;1.87;1.10;;;;;;;7.07;100.00;94724.19;6305333;22;20172;-83
2022/01/03 22:40:51;;;;;;;3.23;1.20;;;;;;;7.08;100.00;94728.38;6277712;22;20156;-81
2022/01/03 22:43:16;;;;;;;1.87;1.10;;;;;;;6.98;100.00;94719.91;6305691;22;20174;-83
2022/01/03 22:45:42;;;;;;;1.13;0.80;;;;;;;7.02;100.00;94710.88;6304747;22;20611;-82
2022/01/03 22:48:07;;;;;;;2.10;1.20;;;;;;;7.07;100.00;94718.22;6277528;22;20736;-82
2022/01/03 22:50:34;;;;;;;1.43;1.00;;;;;;;7.09;100.00;94713.72;6277765;22;20554;-84
2022/01/03 22:52:59;;;;;;;2.80;1.47;;;;;;;7.04;100.00;94708.16;6277521;22;20152;-81
2022/01/03 22:55:26;;;;;;;2.57;1.10;;;;;;;7.11;100.00;94709.19;6277270;22;20227;-83
2022/01/03 22:57:51;;;;;;;4.47;1.20;;;;;;;7.05;100.00;94695.09;6304829;22;20172;-81
2022/01/03 23:00:18;;;;;;;1.60;1.10;;;;;;;7.05;100.00;94691.72;6306797;22;20201;-81
2022/01/03 23:02:43;;;;;;;2.10;1.23;;;;;;;7.15;100.00;94694.22;6280213;22;20186;-82
2022/01/03 23:05:09;;;;;;;3.97;1.23;;;;;;;7.15;100.00;94692.44;6306991;22;20155;-82
2022/01/03 23:07:35;;;;;;;1.70;1.10;;;;;;;7.11;100.00;94688.53;6305662;22;20611;-83
2022/01/03 23:10:10;;;;;;;2.30;1.30;;;;;;;7.09;100.00;94690.47;6318337;22;20175;-84
2022/01/03 23:12:38;;;;;;;3.60;1.30;;;;;;;7.09;100.00;94678.38;6330289;22;20142;-83
2022/01/03 23:15:04;;;;;;;2.90;1.23;;;;;;;7.08;100.00;94679.34;6326514;22;20175;-85
2022/01/03 23:17:29;;;;;;;2.40;1.20;;;;;;;7.12;100.00;94673.88;6280058;22;20171;-84
2022/01/03 23:19:55;;;;;;;2.47;1.17;;;;;;;7.15;100.00;94670.97;6280830;22;20171;-84
2022/01/03 23:22:20;;;;;;;2.00;1.00;;;;;;;7.29;100.00;94673.84;6280965;22;20474;-84
2022/01/03 23:24:45;;;;;;;2.30;1.10;;;;;;;7.36;100.00;94669.72;6280994;22;20182;-84
2022/01/03 23:27:14;;;;;;;1.47;0.70;;;;;;;7.40;100.00;94657.31;6280454;22;20232;-83
2022/01/03 23:29:41;;;;;;;0.60;0.60;;;;;;;7.52;100.00;94650.97;6283173;22;20247;-84
2022/01/03 23:32:10;;;;;;;2.30;0.77;;;;;;;7.60;100.00;94655.38;6282316;22;20160;-84
2022/01/03 23:34:35;;;;;;;0.90;0.90;;;;;;;7.64;100.00;94646.34;6308976;22;20158;-84
2022/01/03 23:37:00;;;;;;;0.90;0.70;;;;;;;7.77;100.00;94651.09;6282812;22;20172;-83
2022/01/03 23:39:26;;;;;;;1.03;0.93;;;;;;;7.80;100.00;94643.06;6282520;22;20187;-84
2022/01/03 23:41:51;;;;;;;0.70;0.70;;;;;;;7.79;100.00;94646.63;6306891;22;20489;-81
2022/01/03 23:44:17;;;;;;;0.90;0.80;;;;;;;7.76;100.00;94639.97;6282129;22;20547;-85
2022/01/03 23:46:42;;;;;;;2.10;0.90;;;;;;;7.76;100.00;94637.38;6307316;22;20261;-82
2022/01/03 23:49:07;;;;;;;1.00;0.90;;;;;;;7.83;100.00;94635.00;6281940;22;20804;-83
2022/01/03 23:51:32;;;;;;;1.10;0.60;;;;;;;7.85;100.00;94636.47;6308900;22;20152;-82
2022/01/03 23:54:03;;;;;;;1.63;0.70;;;;;;;7.85;100.00;94620.13;6307541;22;20159;-85
2022/01/03 23:56:28;;;;;;;0.70;0.70;;;;;;;7.92;100.00;94621.16;6307414;22;20164;-83
2022/01/03 23:58:53;;;;;;;0.87;0.80;;;;;;;7.84;100.00;94621.09;6281739;22;20262;-85
